sensor_id;sensor_type;location;lat;lon;timestamp;P1;durP1;ratioP1;P2;durP2;ratioP2
17347;SDS011;8791;50.876;4.342;2024-01-30T00:01:23;8.60;;;5.50;;
17347;SDS011;8791;50.876;4.342;2024-01-30T00:03:50;8.87;;;4.97;;
17347;SDS011;8791;50.876;4.342;2024-01-30T00:06:18;6.03;;;5.03;;
17347;SDS011;8791;50.876;4.342;2024-01-30T00:08:46;8.37;;;5.03;;
17347;SDS011;8791;50.876;4.342;2024-01-30T00:11:14;6.57;;;4.37;;
17347;SDS011;8791;50.876;4.342;2024-01-30T00:13:40;5.73;;;4.87;;
17347;SDS011;8791;50.876;4.342;2024-01-30T00:16:07;6.90;;;4.77;;
17347;SDS011;8791;50.876;4.342;2024-01-30T00:18:35;8.93;;;4.90;;
17347;SDS011;8791;50.876;4.342;2024-01-30T00:21:02;8.10;;;5.00;;
17347;SDS011;8791;50.876;4.342;2024-01-30T00:23:29;5.97;;;4.67;;
17347;SDS011;8791;50.876;4.342;2024-01-30T00:25:57;6.20;;;5.20;;
17347;SDS011;8791;50.876;4.342;2024-01-30T00:28:25;6.23;;;5.00;;
17347;SDS011;8791;50.876;4.342;2024-01-30T00:30:51;8.27;;;5.03;;
17347;SDS011;8791;50.876;4.342;2024-01-30T00:33:19;6.77;;;4.83;;
17347;SDS011;8791;50.876;4.342;2024-01-30T00:35:46;6.47;;;5.00;;
17347;SDS011;8791;50.876;4.342;2024-01-30T00:38:13;6.37;;;4.97;;
17347;SDS011;8791;50.876;4.342;2024-01-30T00:40:40;5.50;;;4.80;;
17347;SDS011;8791;50.876;4.342;2024-01-30T00:43:08;7.30;;;4.57;;
17347;SDS011;8791;50.876;4.342;2024-01-30T00:45:35;8.23;;;4.60;;
17347;SDS011;8791;50.876;4.342;2024-01-30T00:48:02;5.00;;;4.50;;
17347;SDS011;8791;50.876;4.342;2024-01-30T00:50:30;6.40;;;5.00;;
17347;SDS011;8791;50.876;4.342;2024-01-30T00:52:57;10.37;;;4.97;;
17347;SDS011;8791;50.876;4.342;2024-01-30T00:55:23;7.57;;;5.10;;
17347;SDS011;8791;50.876;4.342;2024-01-30T00:57:50;8.17;;;4.37;;
17347;SDS011;8791;50.876;4.342;2024-01-30T01:00:19;6.43;;;4.50;;
17347;SDS011;8791;50.876;4.342;2024-01-30T01:02:46;7.33;;;5.00;;
17347;SDS011;8791;50.876;4.342;2024-01-30T01:05:13;9.43;;;4.90;;
17347;SDS011;8791;50.876;4.342;2024-01-30T01:07:40;6.03;;;4.57;;
17347;SDS011;8791;50.876;4.342;2024-01-30T01:10:07;6.97;;;4.73;;
17347;SDS011;8791;50.876;4.342;2024-01-30T01:12:36;6.20;;;4.40;;
17347;SDS011;8791;50.876;4.342;2024-01-30T01:15:03;7.03;;;5.60;;
17347;SDS011;8791;50.876;4.342;2024-01-30T01:17:32;7.60;;;4.67;;
17347;SDS011;8791;50.876;4.342;2024-01-30T01:19:59;10.87;;;5.00;;
17347;SDS011;8791;50.876;4.342;2024-01-30T01:22:25;6.83;;;4.27;;
17347;SDS011;8791;50.876;4.342;2024-01-30T01:24:53;6.60;;;4.40;;
17347;SDS011;8791;50.876;4.342;2024-01-30T01:27:19;6.07;;;4.43;;
17347;SDS011;8791;50.876;4.342;2024-01-30T01:29:46;5.97;;;4.27;;
17347;SDS011;8791;50.876;4.342;2024-01-30T01:32:13;5.70;;;5.10;;
17347;SDS011;8791;50.876;4.342;2024-01-30T01:34:42;7.27;;;4.50;;
17347;SDS011;8791;50.876;4.342;2024-01-30T01:37:09;5.77;;;4.13;;
17347;SDS011;8791;50.876;4.342;2024-01-30T01:39:35;8.67;;;4.40;;
17347;SDS011;8791;50.876;4.342;2024-01-30T01:42:03;8.70;;;4.07;;
17347;SDS011;8791;50.876;4.342;2024-01-30T01:44:30;9.43;;;4.33;;
17347;SDS011;8791;50.876;4.342;2024-01-30T01:46:57;7.93;;;4.43;;
17347;SDS011;8791;50.876;4.342;2024-01-30T01:49:24;10.47;;;4.63;;
17347;SDS011;8791;50.876;4.342;2024-01-30T01:51:54;6.10;;;4.27;;
17347;SDS011;8791;50.876;4.342;2024-01-30T01:54:22;11.07;;;5.07;;
17347;SDS011;8791;50.876;4.342;2024-01-30T01:56:50;7.37;;;4.27;;
17347;SDS011;8791;50.876;4.342;2024-01-30T01:59:17;6.67;;;4.27;;
17347;SDS011;8791;50.876;4.342;2024-01-30T02:01:46;7.33;;;4.37;;
17347;SDS011;8791;50.876;4.342;2024-01-30T02:04:14;6.17;;;3.90;;
17347;SDS011;8791;50.876;4.342;2024-01-30T02:06:41;5.80;;;4.37;;
17347;SDS011;8791;50.876;4.342;2024-01-30T02:09:10;5.73;;;4.70;;
17347;SDS011;8791;50.876;4.342;2024-01-30T02:11:37;5.77;;;4.37;;
17347;SDS011;8791;50.876;4.342;2024-01-30T02:14:04;7.07;;;4.90;;
17347;SDS011;8791;50.876;4.342;2024-01-30T02:16:31;5.33;;;4.57;;
17347;SDS011;8791;50.876;4.342;2024-01-30T02:18:58;5.60;;;4.33;;
17347;SDS011;8791;50.876;4.342;2024-01-30T02:21:26;8.13;;;4.40;;
17347;SDS011;8791;50.876;4.342;2024-01-30T02:23:53;5.60;;;4.47;;
17347;SDS011;8791;50.876;4.342;2024-01-30T02:26:21;5.20;;;4.40;;
17347;SDS011;8791;50.876;4.342;2024-01-30T02:28:48;5.70;;;4.30;;
17347;SDS011;8791;50.876;4.342;2024-01-30T02:31:15;6.47;;;4.93;;
17347;SDS011;8791;50.876;4.342;2024-01-30T02:33:42;6.00;;;4.30;;
17347;SDS011;8791;50.876;4.342;2024-01-30T02:36:09;6.93;;;5.00;;
17347;SDS011;8791;50.876;4.342;2024-01-30T02:38:37;6.97;;;4.23;;
17347;SDS011;8791;50.876;4.342;2024-01-30T02:41:04;9.23;;;4.50;;
17347;SDS011;8791;50.876;4.342;2024-01-30T02:43:30;7.70;;;4.77;;
17347;SDS011;8791;50.876;4.342;2024-01-30T02:45:57;6.87;;;5.03;;
17347;SDS011;8791;50.876;4.342;2024-01-30T02:48:25;9.03;;;4.70;;
17347;SDS011;8791;50.876;4.342;2024-01-30T02:50:52;9.27;;;4.77;;
17347;SDS011;8791;50.876;4.342;2024-01-30T02:53:19;9.57;;;5.17;;
17347;SDS011;8791;50.876;4.342;2024-01-30T02:55:47;6.37;;;4.73;;
17347;SDS011;8791;50.876;4.342;2024-01-30T02:58:14;8.43;;;4.63;;
17347;SDS011;8791;50.876;4.342;2024-01-30T03:00:41;7.03;;;4.97;;
17347;SDS011;8791;50.876;4.342;2024-01-30T03:03:08;7.87;;;4.33;;
17347;SDS011;8791;50.876;4.342;2024-01-30T03:05:34;7.23;;;4.07;;
17347;SDS011;8791;50.876;4.342;2024-01-30T03:08:01;5.63;;;4.37;;
17347;SDS011;8791;50.876;4.342;2024-01-30T03:10:30;8.50;;;4.60;;
17347;SDS011;8791;50.876;4.342;2024-01-30T03:12:58;8.23;;;4.87;;
17347;SDS011;8791;50.876;4.342;2024-01-30T03:15:25;9.20;;;4.73;;
17347;SDS011;8791;50.876;4.342;2024-01-30T03:17:52;7.33;;;4.87;;
17347;SDS011;8791;50.876;4.342;2024-01-30T03:20:19;9.20;;;4.53;;
17347;SDS011;8791;50.876;4.342;2024-01-30T03:22:46;6.63;;;4.70;;
17347;SDS011;8791;50.876;4.342;2024-01-30T03:25:13;7.73;;;5.60;;
17347;SDS011;8791;50.876;4.342;2024-01-30T03:27:40;6.33;;;5.00;;
17347;SDS011;8791;50.876;4.342;2024-01-30T03:30:09;12.80;;;4.80;;
17347;SDS011;8791;50.876;4.342;2024-01-30T03:32:36;7.67;;;4.57;;
17347;SDS011;8791;50.876;4.342;2024-01-30T03:35:03;7.93;;;4.63;;
17347;SDS011;8791;50.876;4.342;2024-01-30T03:37:30;12.20;;;5.30;;
17347;SDS011;8791;50.876;4.342;2024-01-30T03:39:57;10.60;;;5.07;;
17347;SDS011;8791;50.876;4.342;2024-01-30T03:42:23;6.73;;;4.60;;
17347;SDS011;8791;50.876;4.342;2024-01-30T03:44:50;6.83;;;4.30;;
17347;SDS011;8791;50.876;4.342;2024-01-30T03:47:20;9.23;;;4.60;;
17347;SDS011;8791;50.876;4.342;2024-01-30T03:49:47;6.60;;;4.53;;
17347;SDS011;8791;50.876;4.342;2024-01-30T03:52:14;6.37;;;4.43;;
17347;SDS011;8791;50.876;4.342;2024-01-30T03:54:40;7.70;;;4.63;;
17347;SDS011;8791;50.876;4.342;2024-01-30T03:57:07;7.97;;;4.47;;
17347;SDS011;8791;50.876;4.342;2024-01-30T03:59:34;9.60;;;5.13;;
17347;SDS011;8791;50.876;4.342;2024-01-30T04:02:01;8.40;;;4.83;;
17347;SDS011;8791;50.876;4.342;2024-01-30T04:04:29;6.87;;;4.93;;
17347;SDS011;8791;50.876;4.342;2024-01-30T04:06:56;11.40;;;5.03;;
17347;SDS011;8791;50.876;4.342;2024-01-30T04:09:22;10.53;;;5.13;;
17347;SDS011;8791;50.876;4.342;2024-01-30T04:11:51;6.47;;;4.50;;
17347;SDS011;8791;50.876;4.342;2024-01-30T04:14:18;9.37;;;5.30;;
17347;SDS011;8791;50.876;4.342;2024-01-30T04:16:45;11.13;;;5.10;;
17347;SDS011;8791;50.876;4.342;2024-01-30T04:19:11;7.07;;;4.73;;
17347;SDS011;8791;50.876;4.342;2024-01-30T04:21:40;7.90;;;4.27;;
17347;SDS011;8791;50.876;4.342;2024-01-30T04:24:07;6.27;;;4.80;;
17347;SDS011;8791;50.876;4.342;2024-01-30T04:26:34;8.90;;;5.17;;
17347;SDS011;8791;50.876;4.342;2024-01-30T04:29:01;7.17;;;4.93;;
17347;SDS011;8791;50.876;4.342;2024-01-30T04:31:28;13.00;;;5.27;;
17347;SDS011;8791;50.876;4.342;2024-01-30T04:33:55;9.90;;;5.40;;
17347;SDS011;8791;50.876;4.342;2024-01-30T04:36:22;8.07;;;5.03;;
17347;SDS011;8791;50.876;4.342;2024-01-30T04:38:50;8.47;;;5.43;;
17347;SDS011;8791;50.876;4.342;2024-01-30T04:41:17;7.40;;;5.07;;
17347;SDS011;8791;50.876;4.342;2024-01-30T04:43:44;7.07;;;4.97;;
17347;SDS011;8791;50.876;4.342;2024-01-30T04:46:11;6.53;;;4.70;;
17347;SDS011;8791;50.876;4.342;2024-01-30T04:48:38;6.23;;;5.27;;
17347;SDS011;8791;50.876;4.342;2024-01-30T04:51:04;6.93;;;4.90;;
17347;SDS011;8791;50.876;4.342;2024-01-30T04:53:31;11.30;;;4.93;;
17347;SDS011;8791;50.876;4.342;2024-01-30T04:55:59;7.07;;;5.00;;
17347;SDS011;8791;50.876;4.342;2024-01-30T04:58:26;9.90;;;5.50;;
17347;SDS011;8791;50.876;4.342;2024-01-30T05:00:53;6.90;;;5.20;;
17347;SDS011;8791;50.876;4.342;2024-01-30T05:03:20;7.07;;;4.83;;
17347;SDS011;8791;50.876;4.342;2024-01-30T05:05:47;9.17;;;5.20;;
17347;SDS011;8791;50.876;4.342;2024-01-30T05:08:14;8.80;;;4.97;;
17347;SDS011;8791;50.876;4.342;2024-01-30T05:10:41;7.80;;;5.00;;
17347;SDS011;8791;50.876;4.342;2024-01-30T05:13:09;7.63;;;4.77;;
17347;SDS011;8791;50.876;4.342;2024-01-30T05:15:38;6.17;;;5.33;;
17347;SDS011;8791;50.876;4.342;2024-01-30T05:18:05;9.37;;;5.23;;
17347;SDS011;8791;50.876;4.342;2024-01-30T05:20:32;5.57;;;5.00;;
17347;SDS011;8791;50.876;4.342;2024-01-30T05:22:59;7.77;;;5.00;;
17347;SDS011;8791;50.876;4.342;2024-01-30T05:25:26;6.30;;;5.03;;
17347;SDS011;8791;50.876;4.342;2024-01-30T05:27:52;10.40;;;4.97;;
17347;SDS011;8791;50.876;4.342;2024-01-30T05:30:21;8.10;;;5.03;;
17347;SDS011;8791;50.876;4.342;2024-01-30T05:32:48;6.17;;;5.33;;
17347;SDS011;8791;50.876;4.342;2024-01-30T05:35:15;5.10;;;4.60;;
17347;SDS011;8791;50.876;4.342;2024-01-30T05:37:42;8.13;;;5.20;;
17347;SDS011;8791;50.876;4.342;2024-01-30T05:40:09;7.53;;;5.03;;
17347;SDS011;8791;50.876;4.342;2024-01-30T05:42:37;14.80;;;5.13;;
17347;SDS011;8791;50.876;4.342;2024-01-30T05:45:04;8.83;;;4.57;;
17347;SDS011;8791;50.876;4.342;2024-01-30T05:47:32;5.93;;;4.80;;
17347;SDS011;8791;50.876;4.342;2024-01-30T05:49:59;9.33;;;5.13;;
17347;SDS011;8791;50.876;4.342;2024-01-30T05:52:26;8.50;;;4.90;;
17347;SDS011;8791;50.876;4.342;2024-01-30T05:54:53;9.13;;;5.10;;
17347;SDS011;8791;50.876;4.342;2024-01-30T05:57:20;7.03;;;5.23;;
17347;SDS011;8791;50.876;4.342;2024-01-30T05:59:47;9.77;;;5.10;;
17347;SDS011;8791;50.876;4.342;2024-01-30T06:02:13;7.90;;;5.30;;
17347;SDS011;8791;50.876;4.342;2024-01-30T06:04:42;7.60;;;5.23;;
17347;SDS011;8791;50.876;4.342;2024-01-30T06:07:09;7.50;;;5.40;;
17347;SDS011;8791;50.876;4.342;2024-01-30T06:09:36;7.43;;;5.33;;
17347;SDS011;8791;50.876;4.342;2024-01-30T06:12:03;15.57;;;5.77;;
17347;SDS011;8791;50.876;4.342;2024-01-30T06:14:31;9.20;;;5.20;;
17347;SDS011;8791;50.876;4.342;2024-01-30T06:16:58;7.13;;;5.23;;
17347;SDS011;8791;50.876;4.342;2024-01-30T06:19:24;7.50;;;5.00;;
17347;SDS011;8791;50.876;4.342;2024-01-30T06:21:52;8.93;;;5.30;;
17347;SDS011;8791;50.876;4.342;2024-01-30T06:24:19;8.20;;;5.20;;
17347;SDS011;8791;50.876;4.342;2024-01-30T06:26:46;8.30;;;5.53;;
17347;SDS011;8791;50.876;4.342;2024-01-30T06:29:13;8.30;;;6.00;;
17347;SDS011;8791;50.876;4.342;2024-01-30T06:31:41;8.73;;;5.20;;
17347;SDS011;8791;50.876;4.342;2024-01-30T06:34:08;11.03;;;5.57;;
17347;SDS011;8791;50.876;4.342;2024-01-30T06:36:36;7.07;;;4.97;;
17347;SDS011;8791;50.876;4.342;2024-01-30T06:39:05;10.83;;;5.63;;
17347;SDS011;8791;50.876;4.342;2024-01-30T06:41:32;11.93;;;5.20;;
17347;SDS011;8791;50.876;4.342;2024-01-30T06:43:59;13.40;;;6.57;;
17347;SDS011;8791;50.876;4.342;2024-01-30T06:46:27;12.53;;;5.93;;
17347;SDS011;8791;50.876;4.342;2024-01-30T06:48:54;9.10;;;5.97;;
17347;SDS011;8791;50.876;4.342;2024-01-30T06:51:21;10.33;;;6.13;;
17347;SDS011;8791;50.876;4.342;2024-01-30T06:53:48;17.87;;;6.60;;
17347;SDS011;8791;50.876;4.342;2024-01-30T06:56:16;15.43;;;6.93;;
17347;SDS011;8791;50.876;4.342;2024-01-30T06:58:46;11.33;;;5.70;;
17347;SDS011;8791;50.876;4.342;2024-01-30T07:01:14;11.33;;;5.27;;
17347;SDS011;8791;50.876;4.342;2024-01-30T07:03:41;7.90;;;5.53;;
17347;SDS011;8791;50.876;4.342;2024-01-30T07:06:08;7.87;;;5.17;;
17347;SDS011;8791;50.876;4.342;2024-01-30T07:08:35;8.60;;;5.60;;
17347;SDS011;8791;50.876;4.342;2024-01-30T07:11:04;9.57;;;6.23;;
17347;SDS011;8791;50.876;4.342;2024-01-30T07:13:32;9.50;;;5.33;;
17347;SDS011;8791;50.876;4.342;2024-01-30T07:16:00;11.63;;;5.63;;
17347;SDS011;8791;50.876;4.342;2024-01-30T07:18:27;10.03;;;5.80;;
17347;SDS011;8791;50.876;4.342;2024-01-30T07:20:54;12.77;;;5.47;;
17347;SDS011;8791;50.876;4.342;2024-01-30T07:23:20;10.30;;;5.80;;
17347;SDS011;8791;50.876;4.342;2024-01-30T07:25:47;12.40;;;5.20;;
17347;SDS011;8791;50.876;4.342;2024-01-30T07:28:14;15.80;;;5.63;;
17347;SDS011;8791;50.876;4.342;2024-01-30T07:30:44;12.40;;;6.07;;
17347;SDS011;8791;50.876;4.342;2024-01-30T07:33:10;10.17;;;6.40;;
17347;SDS011;8791;50.876;4.342;2024-01-30T07:35:37;12.83;;;5.70;;
17347;SDS011;8791;50.876;4.342;2024-01-30T07:38:04;13.27;;;6.23;;
17347;SDS011;8791;50.876;4.342;2024-01-30T07:40:31;8.47;;;5.40;;
17347;SDS011;8791;50.876;4.342;2024-01-30T07:42:58;18.17;;;6.83;;
17347;SDS011;8791;50.876;4.342;2024-01-30T07:45:25;10.83;;;6.57;;
17347;SDS011;8791;50.876;4.342;2024-01-30T07:47:59;12.83;;;6.17;;
17347;SDS011;8791;50.876;4.342;2024-01-30T07:50:26;17.63;;;6.10;;
17347;SDS011;8791;50.876;4.342;2024-01-30T07:52:53;15.40;;;5.80;;
17347;SDS011;8791;50.876;4.342;2024-01-30T07:55:20;17.27;;;6.37;;
17347;SDS011;8791;50.876;4.342;2024-01-30T07:57:49;20.17;;;6.23;;
17347;SDS011;8791;50.876;4.342;2024-01-30T08:00:16;16.37;;;6.70;;
17347;SDS011;8791;50.876;4.342;2024-01-30T08:02:44;18.03;;;7.40;;
17347;SDS011;8791;50.876;4.342;2024-01-30T08:05:12;10.57;;;6.20;;
17347;SDS011;8791;50.876;4.342;2024-01-30T08:07:40;15.07;;;6.73;;
17347;SDS011;8791;50.876;4.342;2024-01-30T08:10:07;18.00;;;6.80;;
17347;SDS011;8791;50.876;4.342;2024-01-30T08:12:34;14.53;;;6.47;;
17347;SDS011;8791;50.876;4.342;2024-01-30T08:15:01;16.87;;;7.43;;
17347;SDS011;8791;50.876;4.342;2024-01-30T08:17:28;16.37;;;6.43;;
17347;SDS011;8791;50.876;4.342;2024-01-30T08:19:55;16.90;;;6.97;;
17347;SDS011;8791;50.876;4.342;2024-01-30T08:22:24;12.47;;;6.10;;
17347;SDS011;8791;50.876;4.342;2024-01-30T08:24:50;11.90;;;6.83;;
17347;SDS011;8791;50.876;4.342;2024-01-30T08:27:17;14.53;;;6.67;;
17347;SDS011;8791;50.876;4.342;2024-01-30T08:29:44;14.23;;;7.60;;
17347;SDS011;8791;50.876;4.342;2024-01-30T08:32:11;19.97;;;8.37;;
17347;SDS011;8791;50.876;4.342;2024-01-30T08:34:38;13.33;;;6.73;;
17347;SDS011;8791;50.876;4.342;2024-01-30T08:37:05;12.93;;;7.50;;
17347;SDS011;8791;50.876;4.342;2024-01-30T08:39:34;19.00;;;7.63;;
17347;SDS011;8791;50.876;4.342;2024-01-30T08:42:00;12.30;;;6.60;;
17347;SDS011;8791;50.876;4.342;2024-01-30T08:44:27;15.27;;;7.63;;
17347;SDS011;8791;50.876;4.342;2024-01-30T08:46:54;12.90;;;7.43;;
17347;SDS011;8791;50.876;4.342;2024-01-30T08:49:21;18.17;;;6.77;;
17347;SDS011;8791;50.876;4.342;2024-01-30T08:51:48;14.87;;;6.97;;
17347;SDS011;8791;50.876;4.342;2024-01-30T08:54:15;10.37;;;6.53;;
17347;SDS011;8791;50.876;4.342;2024-01-30T08:56:44;18.43;;;6.77;;
17347;SDS011;8791;50.876;4.342;2024-01-30T08:59:10;13.23;;;7.00;;
17347;SDS011;8791;50.876;4.342;2024-01-30T09:01:37;10.63;;;6.10;;
17347;SDS011;8791;50.876;4.342;2024-01-30T09:04:04;15.37;;;6.33;;
17347;SDS011;8791;50.876;4.342;2024-01-30T09:06:31;11.40;;;6.27;;
17347;SDS011;8791;50.876;4.342;2024-01-30T09:08:58;12.00;;;6.20;;
17347;SDS011;8791;50.876;4.342;2024-01-30T09:11:25;12.63;;;6.90;;
17347;SDS011;8791;50.876;4.342;2024-01-30T09:13:53;16.50;;;7.20;;
17347;SDS011;8791;50.876;4.342;2024-01-30T09:16:20;9.40;;;5.53;;
17347;SDS011;8791;50.876;4.342;2024-01-30T09:18:47;12.93;;;6.77;;
17347;SDS011;8791;50.876;4.342;2024-01-30T09:21:14;16.70;;;6.47;;
17347;SDS011;8791;50.876;4.342;2024-01-30T09:23:41;20.50;;;7.37;;
17347;SDS011;8791;50.876;4.342;2024-01-30T09:26:08;16.00;;;7.27;;
17347;SDS011;8791;50.876;4.342;2024-01-30T09:28:35;12.40;;;6.77;;
17347;SDS011;8791;50.876;4.342;2024-01-30T09:31:04;14.77;;;6.83;;
17347;SDS011;8791;50.876;4.342;2024-01-30T09:33:35;20.00;;;7.60;;
17347;SDS011;8791;50.876;4.342;2024-01-30T09:36:02;19.20;;;7.33;;
17347;SDS011;8791;50.876;4.342;2024-01-30T09:38:29;11.17;;;7.00;;
17347;SDS011;8791;50.876;4.342;2024-01-30T09:40:56;15.60;;;7.60;;
17347;SDS011;8791;50.876;4.342;2024-01-30T09:43:30;17.83;;;6.90;;
17347;SDS011;8791;50.876;4.342;2024-01-30T09:45:59;16.47;;;7.40;;
17347;SDS011;8791;50.876;4.342;2024-01-30T09:48:30;17.40;;;6.80;;
17347;SDS011;8791;50.876;4.342;2024-01-30T09:50:58;19.67;;;7.30;;
17347;SDS011;8791;50.876;4.342;2024-01-30T09:53:25;19.87;;;7.70;;
17347;SDS011;8791;50.876;4.342;2024-01-30T09:55:52;17.07;;;7.50;;
17347;SDS011;8791;50.876;4.342;2024-01-30T09:58:19;16.50;;;7.97;;
17347;SDS011;8791;50.876;4.342;2024-01-30T10:00:47;19.47;;;9.00;;
17347;SDS011;8791;50.876;4.342;2024-01-30T10:03:14;13.57;;;8.20;;
17347;SDS011;8791;50.876;4.342;2024-01-30T10:05:42;26.70;;;8.23;;
17347;SDS011;8791;50.876;4.342;2024-01-30T10:08:12;18.87;;;7.37;;
17347;SDS011;8791;50.876;4.342;2024-01-30T10:10:39;20.90;;;8.00;;
17347;SDS011;8791;50.876;4.342;2024-01-30T10:13:06;14.73;;;9.70;;
17347;SDS011;8791;50.876;4.342;2024-01-30T10:15:33;15.07;;;7.47;;
17347;SDS011;8791;50.876;4.342;2024-01-30T10:18:01;16.63;;;9.13;;
17347;SDS011;8791;50.876;4.342;2024-01-30T10:20:28;11.77;;;8.13;;
17347;SDS011;8791;50.876;4.342;2024-01-30T10:22:56;14.13;;;8.80;;
17347;SDS011;8791;50.876;4.342;2024-01-30T10:25:23;20.40;;;9.40;;
17347;SDS011;8791;50.876;4.342;2024-01-30T10:27:54;19.83;;;8.43;;
17347;SDS011;8791;50.876;4.342;2024-01-30T10:30:21;19.47;;;9.03;;
17347;SDS011;8791;50.876;4.342;2024-01-30T10:32:48;25.17;;;8.73;;
17347;SDS011;8791;50.876;4.342;2024-01-30T10:35:15;18.90;;;8.23;;
17347;SDS011;8791;50.876;4.342;2024-01-30T10:37:43;19.07;;;8.43;;
17347;SDS011;8791;50.876;4.342;2024-01-30T10:40:13;15.47;;;8.17;;
17347;SDS011;8791;50.876;4.342;2024-01-30T10:42:42;15.13;;;7.03;;
17347;SDS011;8791;50.876;4.342;2024-01-30T10:45:10;17.67;;;6.53;;
17347;SDS011;8791;50.876;4.342;2024-01-30T10:47:39;16.57;;;6.97;;
17347;SDS011;8791;50.876;4.342;2024-01-30T10:50:07;19.47;;;7.03;;
17347;SDS011;8791;50.876;4.342;2024-01-30T10:52:35;13.63;;;6.20;;
17347;SDS011;8791;50.876;4.342;2024-01-30T10:55:04;17.23;;;5.97;;
17347;SDS011;8791;50.876;4.342;2024-01-30T10:57:33;15.20;;;6.03;;
17347;SDS011;8791;50.876;4.342;2024-01-30T11:00:01;15.20;;;6.53;;
17347;SDS011;8791;50.876;4.342;2024-01-30T11:02:36;7.30;;;4.07;;
17347;SDS011;8791;50.876;4.342;2024-01-30T11:05:04;8.20;;;2.80;;
17347;SDS011;8791;50.876;4.342;2024-01-30T11:07:33;9.70;;;3.27;;
17347;SDS011;8791;50.876;4.342;2024-01-30T11:10:00;7.03;;;1.87;;
17347;SDS011;8791;50.876;4.342;2024-01-30T11:12:29;4.30;;;2.17;;
17347;SDS011;8791;50.876;4.342;2024-01-30T11:15:03;5.47;;;1.63;;
17347;SDS011;8791;50.876;4.342;2024-01-30T11:17:41;4.93;;;1.40;;
17347;SDS011;8791;50.876;4.342;2024-01-30T11:20:11;4.70;;;1.47;;
17347;SDS011;8791;50.876;4.342;2024-01-30T11:22:41;6.27;;;1.77;;
17347;SDS011;8791;50.876;4.342;2024-01-30T11:25:13;3.00;;;1.27;;
17347;SDS011;8791;50.876;4.342;2024-01-30T11:27:41;5.23;;;1.20;;
17347;SDS011;8791;50.876;4.342;2024-01-30T11:30:10;5.83;;;1.10;;
17347;SDS011;8791;50.876;4.342;2024-01-30T11:32:46;5.97;;;1.37;;
17347;SDS011;8791;50.876;4.342;2024-01-30T11:35:23;3.23;;;0.90;;
17347;SDS011;8791;50.876;4.342;2024-01-30T11:37:51;1.93;;;0.80;;
17347;SDS011;8791;50.876;4.342;2024-01-30T11:40:20;2.70;;;1.03;;
17347;SDS011;8791;50.876;4.342;2024-01-30T11:42:47;2.73;;;1.07;;
17347;SDS011;8791;50.876;4.342;2024-01-30T11:45:16;2.23;;;1.00;;
17347;SDS011;8791;50.876;4.342;2024-01-30T11:47:44;3.97;;;0.90;;
17347;SDS011;8791;50.876;4.342;2024-01-30T11:50:10;2.53;;;1.00;;
17347;SDS011;8791;50.876;4.342;2024-01-30T11:52:38;4.47;;;1.27;;
17347;SDS011;8791;50.876;4.342;2024-01-30T11:55:05;1.43;;;0.90;;
17347;SDS011;8791;50.876;4.342;2024-01-30T11:57:34;3.33;;;0.87;;
17347;SDS011;8791;50.876;4.342;2024-01-30T12:00:02;5.00;;;0.97;;
17347;SDS011;8791;50.876;4.342;2024-01-30T12:02:36;2.57;;;1.10;;
17347;SDS011;8791;50.876;4.342;2024-01-30T12:05:04;5.03;;;1.13;;
17347;SDS011;8791;50.876;4.342;2024-01-30T12:07:31;6.37;;;1.00;;
17347;SDS011;8791;50.876;4.342;2024-01-30T12:09:58;1.50;;;0.70;;
17347;SDS011;8791;50.876;4.342;2024-01-30T12:12:25;3.53;;;0.90;;
17347;SDS011;8791;50.876;4.342;2024-01-30T12:14:53;4.23;;;0.90;;
17347;SDS011;8791;50.876;4.342;2024-01-30T12:17:30;7.13;;;0.80;;
17347;SDS011;8791;50.876;4.342;2024-01-30T12:20:04;5.07;;;1.70;;
17347;SDS011;8791;50.876;4.342;2024-01-30T12:22:32;2.80;;;0.90;;
17347;SDS011;8791;50.876;4.342;2024-01-30T12:25:02;3.93;;;1.13;;
17347;SDS011;8791;50.876;4.342;2024-01-30T12:27:30;2.67;;;0.87;;
17347;SDS011;8791;50.876;4.342;2024-01-30T12:29:57;7.97;;;1.43;;
17347;SDS011;8791;50.876;4.342;2024-01-30T12:32:24;10.00;;;1.07;;
17347;SDS011;8791;50.876;4.342;2024-01-30T12:34:54;10.17;;;1.00;;
17347;SDS011;8791;50.876;4.342;2024-01-30T12:37:23;5.67;;;0.93;;
17347;SDS011;8791;50.876;4.342;2024-01-30T12:39:51;9.97;;;1.47;;
17347;SDS011;8791;50.876;4.342;2024-01-30T12:42:19;2.53;;;0.93;;
17347;SDS011;8791;50.876;4.342;2024-01-30T12:44:47;2.33;;;0.87;;
17347;SDS011;8791;50.876;4.342;2024-01-30T12:47:15;6.90;;;1.00;;
17347;SDS011;8791;50.876;4.342;2024-01-30T12:49:42;6.60;;;0.97;;
17347;SDS011;8791;50.876;4.342;2024-01-30T12:52:09;5.20;;;0.90;;
17347;SDS011;8791;50.876;4.342;2024-01-30T12:54:38;8.23;;;0.90;;
17347;SDS011;8791;50.876;4.342;2024-01-30T12:57:05;8.37;;;1.07;;
17347;SDS011;8791;50.876;4.342;2024-01-30T12:59:32;6.87;;;1.30;;
17347;SDS011;8791;50.876;4.342;2024-01-30T13:01:59;3.53;;;0.83;;
17347;SDS011;8791;50.876;4.342;2024-01-30T13:04:27;5.77;;;1.30;;
17347;SDS011;8791;50.876;4.342;2024-01-30T13:06:54;7.87;;;1.40;;
17347;SDS011;8791;50.876;4.342;2024-01-30T13:09:21;6.83;;;1.13;;
17347;SDS011;8791;50.876;4.342;2024-01-30T13:11:50;4.20;;;0.90;;
17347;SDS011;8791;50.876;4.342;2024-01-30T13:14:17;5.33;;;1.53;;
17347;SDS011;8791;50.876;4.342;2024-01-30T13:16:43;5.40;;;1.60;;
17347;SDS011;8791;50.876;4.342;2024-01-30T13:19:10;2.50;;;1.03;;
17347;SDS011;8791;50.876;4.342;2024-01-30T13:21:37;8.60;;;1.33;;
17347;SDS011;8791;50.876;4.342;2024-01-30T13:24:05;5.57;;;1.13;;
17347;SDS011;8791;50.876;4.342;2024-01-30T13:26:32;2.90;;;0.90;;
17347;SDS011;8791;50.876;4.342;2024-01-30T13:29:00;3.63;;;1.10;;
17347;SDS011;8791;50.876;4.342;2024-01-30T13:31:28;4.97;;;1.00;;
17347;SDS011;8791;50.876;4.342;2024-01-30T13:33:55;5.07;;;1.20;;
17347;SDS011;8791;50.876;4.342;2024-01-30T13:36:22;3.07;;;1.30;;
17347;SDS011;8791;50.876;4.342;2024-01-30T13:38:49;2.70;;;1.13;;
17347;SDS011;8791;50.876;4.342;2024-01-30T13:41:16;13.50;;;1.47;;
17347;SDS011;8791;50.876;4.342;2024-01-30T13:43:43;1.43;;;0.70;;
17347;SDS011;8791;50.876;4.342;2024-01-30T13:46:11;2.27;;;1.00;;
17347;SDS011;8791;50.876;4.342;2024-01-30T13:48:38;5.57;;;1.30;;
17347;SDS011;8791;50.876;4.342;2024-01-30T13:51:05;10.50;;;1.17;;
17347;SDS011;8791;50.876;4.342;2024-01-30T13:53:32;7.40;;;4.10;;
17347;SDS011;8791;50.876;4.342;2024-01-30T13:55:59;4.93;;;1.00;;
17347;SDS011;8791;50.876;4.342;2024-01-30T13:58:26;7.83;;;1.70;;
17347;SDS011;8791;50.876;4.342;2024-01-30T14:00:53;5.03;;;1.17;;
17347;SDS011;8791;50.876;4.342;2024-01-30T14:03:21;3.30;;;0.90;;
17347;SDS011;8791;50.876;4.342;2024-01-30T14:05:48;3.37;;;1.10;;
17347;SDS011;8791;50.876;4.342;2024-01-30T14:08:15;4.40;;;2.23;;
17347;SDS011;8791;50.876;4.342;2024-01-30T14:10:42;6.03;;;1.40;;
17347;SDS011;8791;50.876;4.342;2024-01-30T14:13:09;8.17;;;2.60;;
17347;SDS011;8791;50.876;4.342;2024-01-30T14:15:36;8.70;;;1.90;;
17347;SDS011;8791;50.876;4.342;2024-01-30T14:18:03;4.93;;;1.10;;
17347;SDS011;8791;50.876;4.342;2024-01-30T14:20:34;4.37;;;1.20;;
17347;SDS011;8791;50.876;4.342;2024-01-30T14:23:01;4.13;;;1.20;;
17347;SDS011;8791;50.876;4.342;2024-01-30T14:25:28;2.17;;;0.90;;
17347;SDS011;8791;50.876;4.342;2024-01-30T14:27:55;7.17;;;1.23;;
17347;SDS011;8791;50.876;4.342;2024-01-30T14:30:22;3.83;;;1.17;;
17347;SDS011;8791;50.876;4.342;2024-01-30T14:32:49;3.90;;;0.90;;
17347;SDS011;8791;50.876;4.342;2024-01-30T14:35:16;3.30;;;1.00;;
17347;SDS011;8791;50.876;4.342;2024-01-30T14:37:45;2.80;;;1.17;;
17347;SDS011;8791;50.876;4.342;2024-01-30T14:40:13;4.60;;;1.30;;
17347;SDS011;8791;50.876;4.342;2024-01-30T14:42:40;6.33;;;1.33;;
17347;SDS011;8791;50.876;4.342;2024-01-30T14:45:07;5.60;;;1.00;;
17347;SDS011;8791;50.876;4.342;2024-01-30T14:47:34;3.33;;;1.20;;
17347;SDS011;8791;50.876;4.342;2024-01-30T14:50:02;5.33;;;1.10;;
17347;SDS011;8791;50.876;4.342;2024-01-30T14:52:30;3.47;;;0.93;;
17347;SDS011;8791;50.876;4.342;2024-01-30T14:54:58;6.53;;;1.30;;
17347;SDS011;8791;50.876;4.342;2024-01-30T14:57:28;9.67;;;1.27;;
17347;SDS011;8791;50.876;4.342;2024-01-30T14:59:55;4.47;;;1.10;;